Ty Lotus — DSNU7 — position and weather

sailwx.info

Track history (hours):
 
Tides and Currents Weather Stations Pressure Air Temp Water Temp Dewpoint Dewpoint Depression Visibility Wind Speed Wind Dir Waves Ship Positions

Ty Lotus

Last reported at 2015-Aug-29 11:12 UTC. Time now 2015-Aug-30 05:52 UTC.
Position N 31°02' E 122°19'.

Length 82 m; draft 4.1 m.

Type: Cargo ship. MMSI: 440324000.

Date/timePositionNaut miles runAvg speedWind from/ knotsBaromVisibWave heightAir tempDewpointWater temp
2015-Aug-29 11:12N 31°02' E 122°19'5 7.3
2015-Aug-29 10:33N 31°02' E 122°14'9 8.8
2015-Aug-29 09:33N 31°04' E 122°04'1312.6
2015-Aug-29 08:34N 31°10' E 121°51'1313.1
2015-Aug-29 07:33N 31°20' E 121°41'1110.8
2015-Aug-29 06:33N 31°25' E 121°30'1 1.0
2015-Aug-29 05:31N 31°26' E 121°29'0 0.0
2015-Aug-29 04:29N 31°26' E 121°29'0 0.0
2015-Aug-29 03:33N 31°26' E 121°29'0 0.0
2015-Aug-29 02:31N 31°26' E 121°29'0 0.0
2015-Aug-29 01:31N 31°26' E 121°29'0 0.0
2015-Aug-29 00:31N 31°26' E 121°29'0 0.0
2015-Aug-28 23:31N 31°26' E 121°29'0 0.0
2015-Aug-28 18:33N 31°26' E 121°29'0 0.2
2015-Aug-28 17:33N 31°26' E 121°29'7 7.4
2015-Aug-28 16:33N 31°22' E 121°37'8 8.4
2015-Aug-28 15:33N 31°17' E 121°44'1110.9
2015-Aug-28 14:33N 31°09' E 121°53'1110.6
2015-Aug-28 13:33N 31°04' E 122°04'1110.7
2015-Aug-28 12:33N 31°03' E 122°17'  
Track history (hours):
 
Tides and Currents Weather Stations Pressure Air Temp Water Temp Dewpoint Dewpoint Depression Visibility Wind Speed Wind Dir Waves Ship Positions

Ty Lotus

Last reported at 2015-Aug-29 11:12 UTC. Time now 2015-Aug-30 05:52 UTC.
Position N 31°02' E 122°19'.

Length 82 m; draft 4.1 m.

Type: Cargo ship. MMSI: 440324000.

Date/timePositionNaut miles runAvg speedWind from/ knotsBaromVisibWave heightAir tempDewpointWater temp
2015-Aug-29 11:12N 31°02' E 122°19'5 7.3
2015-Aug-29 10:33N 31°02' E 122°14'9 8.8
2015-Aug-29 09:33N 31°04' E 122°04'1312.6
2015-Aug-29 08:34N 31°10' E 121°51'1313.1
2015-Aug-29 07:33N 31°20' E 121°41'1110.8
2015-Aug-29 06:33N 31°25' E 121°30'1 1.0
2015-Aug-29 05:31N 31°26' E 121°29'0 0.0
2015-Aug-29 04:29N 31°26' E 121°29'0 0.0
2015-Aug-29 03:33N 31°26' E 121°29'0 0.0
2015-Aug-29 02:31N 31°26' E 121°29'0 0.0
2015-Aug-29 01:31N 31°26' E 121°29'0 0.0
2015-Aug-29 00:31N 31°26' E 121°29'0 0.0
2015-Aug-28 23:31N 31°26' E 121°29'0 0.0
2015-Aug-28 18:33N 31°26' E 121°29'0 0.2
2015-Aug-28 17:33N 31°26' E 121°29'7 7.4
2015-Aug-28 16:33N 31°22' E 121°37'8 8.4
2015-Aug-28 15:33N 31°17' E 121°44'1110.9
2015-Aug-28 14:33N 31°09' E 121°53'1110.6
2015-Aug-28 13:33N 31°04' E 122°04'1110.7
2015-Aug-28 12:33N 31°03' E 122°17'  

Dump ship's entire track history